Time;durP1;ratioP1;P1;durP2;ratioP2;P2;SDS_P1;SDS_P2;PMS_P1;PMS_P2;Temp;Humidity;BMP_temperature;BMP_pressure;BME280_temperature;BME280_humidity;BME280_pressure;Samples;Min_cycle;Max_cycle;Signal;HPM_P1;HPM_P2
2022/05/11 00:00:13;;;;;;;6.05;4.40;;;22.10;60.00;;;;;;4995900;28;20027;-68
2022/05/11 00:02:39;;;;;;;5.25;4.72;;;22.00;60.90;;;;;;5011475;28;20022;-68
2022/05/11 00:05:15;;;;;;;8.13;4.65;;;22.00;61.90;;;;;;5013934;28;20029;-68
2022/05/11 00:07:40;;;;;;;6.43;4.97;;;21.90;62.90;;;;;;5011967;28;20042;-68
2022/05/11 00:10:11;;;;;;;6.88;5.13;;;21.80;63.90;;;;;;5013999;28;20038;-68
2022/05/11 00:12:38;;;;;;;7.60;5.47;;;21.70;64.00;;;;;;5009703;28;20113;-68
2022/05/11 00:15:04;;;;;;;5.85;5.25;;;21.60;64.90;;;;;;5011997;28;20025;-68
2022/05/11 00:17:29;;;;;;;6.70;5.70;;;21.60;65.90;;;;;;5000089;28;20106;-68
2022/05/11 00:19:55;;;;;;;9.70;5.85;;;21.50;67.20;;;;;;5013344;28;20065;-68
2022/05/11 00:22:20;;;;;;;7.88;5.57;;;21.40;67.20;;;;;;5010975;28;20026;-68
2022/05/11 00:24:46;;;;;;;8.98;5.18;;;21.40;67.60;;;;;;5014145;28;20030;-68
2022/05/11 00:27:11;;;;;;;7.45;5.72;;;21.30;68.00;;;;;;5008752;28;20110;-68
2022/05/11 00:29:37;;;;;;;6.45;5.43;;;21.30;68.40;;;;;;5013817;28;20030;-68
2022/05/11 00:32:02;;;;;;;6.18;5.30;;;21.20;69.30;;;;;;5007714;28;20127;-68
2022/05/11 00:34:28;;;;;;;6.30;5.70;;;21.20;69.70;;;;;;5013553;28;20030;-68
2022/05/11 00:36:53;;;;;;;8.52;5.85;;;21.10;70.80;;;;;;5013258;28;20048;-69
2022/05/11 00:39:19;;;;;;;12.48;6.43;;;21.00;71.20;;;;;;5012777;28;20116;-68
2022/05/11 00:41:44;;;;;;;7.32;6.63;;;20.90;71.30;;;;;;5013520;28;20050;-68
2022/05/11 00:44:12;;;;;;;9.13;6.43;;;20.90;72.50;;;;;;5012006;28;20052;-68
2022/05/11 00:46:57;;;;;;;9.15;5.68;;;20.80;72.80;;;;;;5013263;28;20034;-68
2022/05/11 00:49:34;;;;;;;6.15;5.30;;;20.70;73.40;;;;;;4993696;28;20034;-68
2022/05/11 00:52:18;;;;;;;7.43;6.03;;;20.60;73.10;;;;;;5009371;28;20030;-68
2022/05/11 00:54:55;;;;;;;8.13;6.23;;;20.60;73.30;;;;;;4993898;28;20049;-68
2022/05/11 00:57:25;;;;;;;8.23;6.07;;;20.50;74.10;;;;;;5010001;28;20186;-68
2022/05/11 00:59:52;;;;;;;8.88;5.53;;;20.50;74.30;;;;;;5002726;28;20041;-68
2022/05/11 01:02:20;;;;;;;8.23;6.00;;;20.50;74.90;;;;;;4995532;28;20045;-68
2022/05/11 01:04:46;;;;;;;6.95;5.40;;;20.50;75.00;;;;;;5013102;28;20030;-68
2022/05/11 01:07:13;;;;;;;8.93;6.15;;;20.40;75.20;;;;;;5011333;28;20145;-69
2022/05/11 01:09:40;;;;;;;6.57;5.40;;;20.30;75.80;;;;;;5013046;28;20052;-68
2022/05/11 01:12:11;;;;;;;7.45;5.88;;;20.30;75.90;;;;;;5011795;28;20408;-69
2022/05/11 01:14:39;;;;;;;6.32;5.72;;;20.20;76.00;;;;;;4993128;28;20026;-69
2022/05/11 01:17:06;;;;;;;7.70;5.75;;;20.20;76.50;;;;;;5010463;28;20378;-69
2022/05/11 01:19:34;;;;;;;5.47;4.88;;;20.20;76.50;;;;;;4993494;28;20034;-68
2022/05/11 01:22:31;;;;;;;6.72;5.53;;;20.10;76.70;;;;;;4994182;28;20069;-69
2022/05/11 01:24:58;;;;;;;6.50;5.28;;;20.10;76.70;;;;;;4993525;28;20125;-69
2022/05/11 01:27:30;;;;;;;7.30;5.72;;;20.10;77.00;;;;;;4999729;28;20018;-69
2022/05/11 01:29:58;;;;;;;7.40;5.70;;;20.00;77.30;;;;;;5012844;28;20046;-68
2022/05/11 01:32:26;;;;;;;8.45;5.55;;;20.00;77.40;;;;;;5009375;28;20029;-69
2022/05/11 01:35:22;;;;;;;6.88;5.47;;;19.90;77.40;;;;;;5012401;28;20511;-68
2022/05/11 01:38:14;;;;;;;6.38;5.28;;;19.90;77.30;;;;;;5010840;28;20032;-69
2022/05/11 01:40:40;;;;;;;8.85;5.75;;;19.90;77.60;;;;;;5012657;28;20178;-68
2022/05/11 01:43:06;;;;;;;11.48;5.80;;;19.80;77.80;;;;;;5010511;28;20124;-69
2022/05/11 01:45:32;;;;;;;7.72;5.38;;;19.90;78.00;;;;;;5011362;28;20026;-68
2022/05/11 01:47:57;;;;;;;7.43;5.70;;;19.80;78.20;;;;;;5005151;28;20034;-68
2022/05/11 01:50:24;;;;;;;6.93;4.90;;;19.80;78.30;;;;;;5012198;28;20077;-68
2022/05/11 01:52:49;;;;;;;6.40;5.30;;;19.90;78.60;;;;;;5005399;28;20030;-68
2022/05/11 01:55:16;;;;;;;6.25;5.05;;;19.80;78.60;;;;;;4996526;28;20036;-68
2022/05/11 01:57:41;;;;;;;6.03;4.90;;;19.80;78.80;;;;;;5010453;28;20034;-68
2022/05/11 02:00:09;;;;;;;6.82;5.00;;;19.90;79.10;;;;;;4992372;28;20516;-68
2022/05/11 02:02:35;;;;;;;5.35;4.85;;;19.90;79.30;;;;;;5009667;28;20496;-68
2022/05/11 02:07:51;;;;;;;6.47;5.50;;;19.80;79.60;;;;;;5011484;28;20141;-68
2022/05/11 02:10:22;;;;;;;8.63;5.40;;;19.80;79.70;;;;;;5010532;28;20046;-68
2022/05/11 02:12:48;;;;;;;5.93;5.32;;;19.80;79.90;;;;;;4995313;28;20381;-69
2022/05/11 02:15:14;;;;;;;8.38;5.57;;;19.80;80.10;;;;;;5010670;28;20033;-69
2022/05/11 02:17:43;;;;;;;9.45;5.78;;;19.80;80.30;;;;;;5011228;28;20109;-68
2022/05/11 02:20:10;;;;;;;5.65;5.00;;;19.80;80.40;;;;;;4996870;28;20026;-69
2022/05/11 02:22:36;;;;;;;6.90;5.35;;;19.80;80.40;;;;;;5011102;28;20060;-69
2022/05/11 02:25:03;;;;;;;6.97;5.53;;;19.80;80.40;;;;;;5009303;28;20533;-69
2022/05/11 02:27:31;;;;;;;6.53;5.10;;;19.70;80.60;;;;;;4992876;28;20464;-69
2022/05/11 02:29:57;;;;;;;8.43;4.82;;;19.70;80.50;;;;;;5008180;28;20427;-69
2022/05/11 02:32:23;;;;;;;6.53;5.25;;;19.70;80.30;;;;;;5010535;28;20038;-68
2022/05/11 02:37:33;;;;;;;6.38;5.28;;;19.70;80.30;;;;;;4992011;28;20030;-68
2022/05/11 02:39:59;;;;;;;5.85;4.72;;;19.70;80.20;;;;;;5006991;28;20042;-68
2022/05/11 02:42:25;;;;;;;6.07;4.40;;;19.60;80.60;;;;;;5009835;28;20117;-68
2022/05/11 02:44:50;;;;;;;6.30;4.93;;;19.60;80.60;;;;;;5011863;28;20044;-68
2022/05/11 02:47:16;;;;;;;7.72;4.88;;;19.70;80.60;;;;;;5008966;28;20026;-67
2022/05/11 02:49:41;;;;;;;7.70;5.05;;;19.70;80.70;;;;;;5011629;28;20069;-67
2022/05/11 02:52:07;;;;;;;6.13;5.20;;;19.70;80.80;;;;;;5009145;28;20037;-67
2022/05/11 02:54:32;;;;;;;8.10;5.63;;;19.70;80.80;;;;;;5010455;28;20133;-68
2022/05/11 02:56:58;;;;;;;6.28;5.13;;;19.70;80.80;;;;;;5010308;28;20038;-68
2022/05/11 02:59:23;;;;;;;5.55;4.95;;;19.60;80.80;;;;;;5011601;28;20026;-68
2022/05/11 03:01:51;;;;;;;6.97;5.10;;;19.60;80.90;;;;;;5009641;28;20104;-67
2022/05/11 03:04:16;;;;;;;6.63;5.30;;;19.60;81.00;;;;;;5011692;28;20453;-68
2022/05/11 03:06:42;;;;;;;6.00;4.63;;;19.60;81.00;;;;;;5009382;28;20026;-70
2022/05/11 03:09:08;;;;;;;6.68;5.00;;;19.70;81.10;;;;;;5009636;28;20112;-71
2022/05/11 03:11:34;;;;;;;7.32;4.95;;;19.70;81.20;;;;;;5010453;28;20033;-71
2022/05/11 03:13:59;;;;;;;7.32;4.55;;;19.70;81.20;;;;;;5011739;28;20420;-72
2022/05/11 03:16:25;;;;;;;5.50;4.32;;;19.80;81.30;;;;;;5009658;28;20030;-72
2022/05/11 03:18:50;;;;;;;6.60;5.47;;;19.80;81.30;;;;;;5009555;28;20033;-72
2022/05/11 03:21:16;;;;;;;6.03;4.90;;;19.80;81.40;;;;;;5004815;28;20037;-72
2022/05/11 03:23:42;;;;;;;6.10;5.28;;;19.80;81.60;;;;;;5002773;28;20036;-72
2022/05/11 03:26:08;;;;;;;8.32;5.70;;;19.80;81.80;;;;;;5013695;28;20034;-73
2022/05/11 03:28:33;;;;;;;6.35;4.90;;;19.70;81.80;;;;;;5013526;28;20033;-73
2022/05/11 03:30:59;;;;;;;5.68;4.85;;;19.80;82.00;;;;;;5013832;28;20081;-73
2022/05/11 03:36:09;;;;;;;6.63;4.80;;;19.80;82.20;;;;;;5006629;28;20179;-73
2022/05/11 03:38:35;;;;;;;7.15;5.22;;;19.80;82.10;;;;;;5007553;28;20030;-73
2022/05/11 03:41:00;;;;;;;6.75;5.65;;;19.80;82.10;;;;;;5008271;28;20472;-73
2022/05/11 03:43:26;;;;;;;7.38;5.25;;;19.70;82.10;;;;;;4995128;28;20018;-73
2022/05/11 03:45:51;;;;;;;7.00;5.15;;;19.70;82.40;;;;;;5000371;28;20389;-72
2022/05/11 03:48:17;;;;;;;7.50;5.40;;;19.70;82.50;;;;;;5013792;28;20108;-72
2022/05/11 03:50:42;;;;;;;8.80;5.53;;;19.70;82.50;;;;;;5011397;28;20425;-72
2022/05/11 03:53:08;;;;;;;7.57;5.93;;;19.70;82.80;;;;;;5014344;28;20114;-71
2022/05/11 03:55:33;;;;;;;8.95;5.60;;;19.70;82.90;;;;;;5010734;28;20037;-72
2022/05/11 03:58:00;;;;;;;7.88;5.25;;;19.70;83.10;;;;;;5014702;28;20112;-71
2022/05/11 04:00:25;;;;;;;7.88;5.20;;;19.70;83.40;;;;;;5010710;28;20026;-72
2022/05/11 04:02:53;;;;;;;8.20;5.95;;;19.80;83.60;;;;;;4980400;28;20092;-73
2022/05/11 04:05:19;;;;;;;9.60;5.50;;;19.70;83.50;;;;;;5009768;28;20041;-73
2022/05/11 04:07:45;;;;;;;6.53;5.28;;;19.70;83.50;;;;;;5012452;28;20061;-73
2022/05/11 04:10:12;;;;;;;8.38;6.00;;;19.70;83.70;;;;;;5012141;28;20128;-73
2022/05/11 04:12:38;;;;;;;8.57;5.68;;;19.70;84.20;;;;;;5012253;28;20029;-73
2022/05/11 04:15:05;;;;;;;8.43;5.63;;;19.70;84.40;;;;;;5014022;28;20030;-73
2022/05/11 04:17:31;;;;;;;8.45;5.45;;;19.70;84.70;;;;;;5012263;28;20030;-74
2022/05/11 04:19:57;;;;;;;6.60;5.78;;;19.70;84.90;;;;;;5013920;28;20109;-73
2022/05/11 04:22:23;;;;;;;9.30;6.15;;;19.70;84.60;;;;;;5007341;28;20026;-73
2022/05/11 04:24:48;;;;;;;7.15;5.53;;;19.80;84.60;;;;;;5014109;28;20030;-73
2022/05/11 04:27:14;;;;;;;7.55;5.35;;;19.70;84.70;;;;;;5011745;28;20489;-73
2022/05/11 04:29:40;;;;;;;6.00;5.22;;;19.80;84.80;;;;;;5012834;28;20040;-73
2022/05/11 04:32:07;;;;;;;6.22;4.80;;;19.80;85.10;;;;;;5011048;28;20026;-73
2022/05/11 04:34:34;;;;;;;6.93;5.97;;;19.80;85.20;;;;;;5012991;28;20393;-73
2022/05/11 04:36:59;;;;;;;7.90;5.82;;;19.80;84.80;;;;;;5011662;28;20026;-73
2022/05/11 04:39:25;;;;;;;8.13;5.80;;;19.80;84.90;;;;;;5013694;28;20125;-73
2022/05/11 04:41:51;;;;;;;7.38;5.82;;;19.80;84.70;;;;;;5002710;28;20041;-73
2022/05/11 04:44:16;;;;;;;8.10;5.53;;;19.80;85.00;;;;;;5007446;28;20026;-73
2022/05/11 04:46:42;;;;;;;7.57;5.80;;;19.90;85.20;;;;;;5004597;28;20093;-74
2022/05/11 04:49:16;;;;;;;9.52;6.03;;;19.90;85.00;;;;;;4992420;28;20023;-74
2022/05/11 04:51:42;;;;;;;6.43;5.57;;;19.90;85.30;;;;;;5002960;28;20383;-74
2022/05/11 04:54:08;;;;;;;9.50;5.88;;;19.90;85.60;;;;;;5009869;28;20503;-74
2022/05/11 04:56:33;;;;;;;11.00;6.75;;;19.90;86.00;;;;;;5010705;28;20116;-73
2022/05/11 04:58:59;;;;;;;9.60;6.25;;;19.90;86.30;;;;;;5012416;28;20032;-74
2022/05/11 05:01:25;;;;;;;7.75;5.70;;;19.90;86.30;;;;;;5011252;28;20643;-74
2022/05/11 05:03:51;;;;;;;8.35;5.88;;;20.00;86.70;;;;;;5012779;28;20026;-74
2022/05/11 05:06:17;;;;;;;7.50;5.75;;;20.00;86.80;;;;;;5011212;28;20064;-74
2022/05/11 05:08:43;;;;;;;8.50;6.15;;;20.00;87.00;;;;;;5012747;28;20061;-75
2022/05/11 05:11:08;;;;;;;7.43;5.88;;;20.00;87.40;;;;;;5011187;28;20034;-73
2022/05/11 05:13:34;;;;;;;7.10;6.07;;;20.00;87.50;;;;;;5013251;28;20426;-74
2022/05/11 05:15:59;;;;;;;9.07;5.93;;;20.10;87.80;;;;;;5011167;28;20029;-74
2022/05/11 05:18:25;;;;;;;7.60;5.90;;;20.00;87.60;;;;;;5012924;28;20057;-73
2022/05/11 05:20:50;;;;;;;9.10;6.05;;;20.10;87.50;;;;;;5010902;28;20400;-73
2022/05/11 05:23:16;;;;;;;8.63;6.20;;;20.00;87.70;;;;;;5012787;28;20026;-73
2022/05/11 05:25:41;;;;;;;9.70;6.43;;;20.00;88.00;;;;;;5011612;28;20389;-73
2022/05/11 05:31:08;;;;;;;9.02;6.53;;;20.00;88.40;;;;;;5009555;28;20037;-73
2022/05/11 05:33:34;;;;;;;11.02;7.25;;;20.00;88.20;;;;;;4996868;28;20033;-73
2022/05/11 05:36:01;;;;;;;9.75;6.97;;;20.00;88.20;;;;;;5011037;28;20037;-73
2022/05/11 05:38:27;;;;;;;8.80;7.07;;;20.00;88.10;;;;;;5011591;28;20030;-73
2022/05/11 05:40:54;;;;;;;9.07;6.47;;;20.00;88.50;;;;;;5010729;28;20026;-73
2022/05/11 05:43:20;;;;;;;8.38;6.10;;;20.00;88.30;;;;;;5012222;28;20088;-73
2022/05/11 05:45:51;;;;;;;12.95;5.80;;;20.00;88.80;;;;;;5008726;28;20038;-73
2022/05/11 05:48:18;;;;;;;10.52;6.57;;;20.00;89.00;;;;;;5011047;28;20068;-73
2022/05/11 05:50:44;;;;;;;7.53;6.43;;;20.10;89.10;;;;;;5010684;28;20034;-73
2022/05/11 05:53:09;;;;;;;11.82;7.00;;;20.10;89.10;;;;;;5010061;28;20049;-73
2022/05/11 05:55:35;;;;;;;9.52;5.93;;;20.10;89.20;;;;;;5010569;28;20104;-73
2022/05/11 05:58:00;;;;;;;8.50;6.60;;;20.10;89.50;;;;;;5012904;28;20084;-74
2022/05/11 06:00:26;;;;;;;10.38;6.72;;;20.20;89.30;;;;;;5010613;28;20474;-73
2022/05/11 06:02:54;;;;;;;9.30;7.10;;;20.20;89.90;;;;;;5011249;28;20038;-74
2022/05/11 06:05:20;;;;;;;7.13;6.30;;;20.20;90.20;;;;;;5010646;28;20026;-74
2022/05/11 06:07:45;;;;;;;10.07;7.15;;;20.20;90.20;;;;;;5004352;28;20046;-74
2022/05/11 06:10:11;;;;;;;9.60;7.35;;;20.30;90.50;;;;;;5000597;28;20050;-73
2022/05/11 06:12:36;;;;;;;10.35;7.38;;;20.40;90.70;;;;;;5008642;28;20040;-73
2022/05/11 06:15:03;;;;;;;10.98;7.70;;;20.40;90.90;;;;;;5011882;28;20057;-73
2022/05/11 06:17:29;;;;;;;11.05;7.78;;;20.40;90.90;;;;;;4994068;28;20018;-72
2022/05/11 06:19:54;;;;;;;9.10;7.20;;;20.40;90.90;;;;;;5002653;28;20433;-72
2022/05/11 06:22:21;;;;;;;7.63;6.70;;;20.50;91.00;;;;;;5010188;28;20108;-72
2022/05/11 06:24:47;;;;;;;10.90;7.45;;;20.50;91.10;;;;;;5011996;28;20498;-72
2022/05/11 06:27:26;;;;;;;9.85;6.82;;;20.50;91.10;;;;;;5010488;28;20068;-71
2022/05/11 06:29:58;;;;;;;11.88;7.00;;;20.60;91.10;;;;;;5012065;28;20034;-72
2022/05/11 06:32:24;;;;;;;12.10;7.63;;;20.60;91.30;;;;;;5007077;28;20026;-72
2022/05/11 06:34:51;;;;;;;11.38;7.70;;;20.60;91.40;;;;;;4992605;28;20037;-72
2022/05/11 06:37:17;;;;;;;9.43;7.43;;;20.50;91.50;;;;;;5009476;28;20022;-72
2022/05/11 06:39:42;;;;;;;10.55;8.10;;;20.60;91.50;;;;;;5011882;28;20030;-72
2022/05/11 06:42:10;;;;;;;8.20;7.20;;;20.50;91.30;;;;;;5010009;28;20080;-72
2022/05/11 06:44:36;;;;;;;8.48;7.28;;;20.60;91.50;;;;;;5010742;28;20030;-72
2022/05/11 06:47:02;;;;;;;8.77;7.05;;;20.70;91.40;;;;;;5010226;28;20478;-71
2022/05/11 06:49:27;;;;;;;9.82;7.40;;;20.70;91.50;;;;;;5024108;28;20073;-71
2022/05/11 06:51:53;;;;;;;12.75;7.72;;;20.70;91.70;;;;;;5010939;28;20061;-70
2022/05/11 06:59:47;;;;;;;10.10;7.70;;;21.00;91.30;;;;;;5013544;28;20030;-73
2022/05/11 07:02:12;;;;;;;10.73;7.07;;;21.00;91.20;;;;;;5007969;28;20024;-72
2022/05/11 07:04:38;;;;;;;10.77;6.95;;;21.10;91.20;;;;;;5009855;28;20726;-70
2022/05/11 07:07:05;;;;;;;10.40;7.88;;;21.10;91.00;;;;;;5009384;28;20087;-70
2022/05/11 07:09:33;;;;;;;11.13;6.95;;;21.10;90.90;;;;;;5025225;28;20087;-69
2022/05/11 07:12:18;;;;;;;9.10;6.28;;;21.20;90.90;;;;;;5006504;28;20030;-67
2022/05/11 07:14:57;;;;;;;8.73;6.50;;;21.40;90.70;;;;;;5016812;28;20057;-69
2022/05/11 07:17:23;;;;;;;8.63;6.68;;;21.50;90.50;;;;;;5014015;28;20037;-68
2022/05/11 07:19:49;;;;;;;10.80;7.13;;;21.50;90.10;;;;;;5010939;28;20099;-68
2022/05/11 07:22:15;;;;;;;9.68;6.63;;;21.50;89.70;;;;;;5014738;28;20544;-68
2022/05/11 07:24:42;;;;;;;8.43;6.95;;;21.60;89.20;;;;;;5007286;28;20129;-69
2022/05/11 07:27:08;;;;;;;9.68;6.78;;;21.70;89.10;;;;;;5011509;28;20104;-69
2022/05/11 07:29:34;;;;;;;7.53;6.15;;;21.80;88.90;;;;;;5013595;28;20045;-69
2022/05/11 07:31:59;;;;;;;7.07;5.70;;;21.80;88.30;;;;;;5004375;28;20052;-69
2022/05/11 07:34:25;;;;;;;6.57;5.43;;;21.90;87.60;;;;;;5014205;28;20064;-68
2022/05/11 07:36:54;;;;;;;8.23;6.13;;;22.00;87.10;;;;;;5006254;28;20561;-69
2022/05/11 07:39:23;;;;;;;6.60;5.90;;;22.00;86.80;;;;;;5004998;28;20017;-68
2022/05/11 07:41:49;;;;;;;9.35;5.60;;;22.00;86.70;;;;;;5007141;28;20474;-69
2022/05/11 07:44:15;;;;;;;8.57;5.60;;;22.20;86.70;;;;;;5006379;28;20073;-68
2022/05/11 07:46:41;;;;;;;6.65;5.30;;;22.30;86.00;;;;;;5017363;28;20658;-69
2022/05/11 07:49:07;;;;;;;5.55;4.90;;;22.30;85.00;;;;;;5012014;28;20437;-69
2022/05/11 07:51:34;;;;;;;8.15;5.93;;;22.40;84.10;;;;;;5003586;28;20026;-69
2022/05/11 07:54:00;;;;;;;12.05;5.30;;;22.40;84.20;;;;;;5011515;28;20026;-70
2022/05/11 08:01:53;;;;;;;6.72;5.20;;;22.70;82.60;;;;;;4998968;28;20036;-70
2022/05/11 08:04:19;;;;;;;6.28;4.30;;;22.70;81.90;;;;;;5013223;28;20097;-70
2022/05/11 08:06:44;;;;;;;7.50;4.63;;;22.70;81.40;;;;;;5012189;28;20034;-70
2022/05/11 08:09:10;;;;;;;6.95;4.47;;;22.90;81.60;;;;;;5009778;28;20143;-70
2022/05/11 08:11:36;;;;;;;5.95;4.75;;;23.00;81.30;;;;;;5007358;28;20033;-71
2022/05/11 08:14:02;;;;;;;7.78;4.65;;;23.20;80.70;;;;;;4999720;28;20034;-70
2022/05/11 08:16:28;;;;;;;5.57;4.45;;;23.30;80.10;;;;;;5010430;28;20091;-70
2022/05/11 08:18:54;;;;;;;6.18;4.47;;;23.40;79.70;;;;;;5011887;28;20044;-71
2022/05/11 08:21:19;;;;;;;8.50;4.75;;;23.50;79.30;;;;;;5002272;28;20026;-71
2022/05/11 08:23:46;;;;;;;6.30;5.20;;;23.60;78.40;;;;;;5001154;28;20037;-71
2022/05/11 08:26:12;;;;;;;5.57;4.65;;;23.70;78.30;;;;;;5006053;28;20026;-71
2022/05/11 08:28:37;;;;;;;6.40;4.93;;;23.70;77.90;;;;;;5004088;28;20034;-70
2022/05/11 08:33:47;;;;;;;9.20;5.10;;;23.80;77.30;;;;;;5012982;28;20524;-68
2022/05/11 08:36:16;;;;;;;6.20;4.30;;;23.80;77.40;;;;;;5019199;28;20041;-70
2022/05/11 08:38:44;;;;;;;7.13;5.22;;;23.90;77.50;;;;;;5027843;28;20037;-69
2022/05/11 08:41:45;;;;;;;7.00;4.50;;;24.10;77.00;;;;;;5008857;28;20118;-67
2022/05/11 08:44:17;;;;;;;6.90;5.47;;;24.20;76.40;;;;;;5029609;28;20043;-70
2022/05/11 08:46:57;;;;;;;7.80;5.45;;;24.20;75.40;;;;;;4996600;28;20033;-67
2022/05/11 08:49:41;;;;;;;5.95;5.35;;;24.20;75.00;;;;;;4993506;28;20049;-71
2022/05/11 08:52:34;;;;;;;5.68;4.90;;;24.20;74.70;;;;;;5010154;28;20091;-69
2022/05/11 08:55:16;;;;;;;5.15;4.50;;;24.30;74.70;;;;;;4991014;28;20057;-69
2022/05/11 08:57:43;;;;;;;6.07;5.25;;;24.30;74.80;;;;;;5008924;28;20031;-69
2022/05/11 09:00:13;;;;;;;6.68;4.88;;;24.40;74.80;;;;;;4993637;28;20474;-67
2022/05/11 09:02:47;;;;;;;6.00;5.05;;;24.50;74.10;;;;;;5032218;28;20033;-67
2022/05/11 09:05:14;;;;;;;7.00;4.85;;;24.70;73.80;;;;;;5016622;28;20037;-68
2022/05/11 09:07:42;;;;;;;7.10;5.70;;;24.80;73.40;;;;;;5005686;28;20053;-68
2022/05/11 09:10:09;;;;;;;10.00;5.43;;;24.90;73.00;;;;;;5018288;28;20063;-68
2022/05/11 09:12:36;;;;;;;6.20;5.57;;;24.90;72.90;;;;;;4993735;28;20481;-69
2022/05/11 09:15:03;;;;;;;7.43;6.00;;;25.00;72.90;;;;;;5004657;28;20030;-68
2022/05/11 09:17:34;;;;;;;6.15;5.55;;;25.10;72.10;;;;;;5012860;28;20022;-68
2022/05/11 09:20:06;;;;;;;6.13;5.53;;;25.20;72.10;;;;;;5018742;28;20132;-68
2022/05/11 09:22:33;;;;;;;8.85;5.32;;;25.30;72.30;;;;;;5003459;28;20041;-68
2022/05/11 09:25:03;;;;;;;7.13;6.28;;;25.30;71.80;;;;;;4993995;28;20030;-70
2022/05/11 09:27:35;;;;;;;8.80;6.45;;;25.40;71.60;;;;;;5007487;28;20037;-69
2022/05/11 09:30:23;;;;;;;8.32;5.63;;;25.40;72.10;;;;;;4999896;28;20030;-69
2022/05/11 09:32:53;;;;;;;6.70;6.00;;;25.50;71.90;;;;;;4999149;28;20069;-69
2022/05/11 09:35:21;;;;;;;9.13;5.78;;;25.50;71.40;;;;;;4992934;28;20049;-68
2022/05/11 09:38:31;;;;;;;7.32;6.63;;;25.60;70.90;;;;;;4992914;28;20085;-68
2022/05/11 09:41:22;;;;;;;7.97;5.63;;;25.70;71.10;;;;;;4976674;28;20026;-69
2022/05/11 09:43:50;;;;;;;7.43;6.03;;;25.80;70.20;;;;;;4993003;28;20026;-69
2022/05/11 09:46:27;;;;;;;7.28;5.70;;;25.80;69.50;;;;;;5000337;28;20069;-69
2022/05/11 09:48:57;;;;;;;11.98;5.63;;;25.80;69.20;;;;;;5007952;28;20057;-69
2022/05/11 09:51:25;;;;;;;8.32;5.95;;;25.90;69.70;;;;;;5001250;28;20046;-69
2022/05/11 09:53:54;;;;;;;7.97;6.93;;;26.00;69.40;;;;;;5003895;28;20022;-69
2022/05/11 09:56:29;;;;;;;8.82;6.68;;;26.00;69.40;;;;;;5000923;28;20069;-69
2022/05/11 09:58:55;;;;;;;9.32;6.75;;;26.00;69.00;;;;;;5012887;28;20026;-69
2022/05/11 10:01:29;;;;;;;8.75;6.63;;;26.10;68.90;;;;;;5009978;28;20496;-69
2022/05/11 10:03:59;;;;;;;8.05;6.85;;;26.20;69.00;;;;;;5011525;28;20098;-69
2022/05/11 10:06:27;;;;;;;8.57;5.75;;;26.30;68.40;;;;;;5010142;28;20041;-69
2022/05/11 10:08:54;;;;;;;6.72;6.05;;;26.40;68.30;;;;;;5012052;28;20437;-68
2022/05/11 10:11:29;;;;;;;11.48;5.82;;;26.50;68.20;;;;;;5001822;28;20514;-67
2022/05/11 10:23:25;;;;;;;7.35;6.03;;;26.70;66.00;;;;;;4992641;28;20030;-68
2022/05/11 10:26:09;;;;;;;6.95;5.60;;;26.80;65.90;;;;;;4996011;28;20879;-68
2022/05/11 10:28:56;;;;;;;6.72;5.35;;;26.80;65.30;;;;;;5011818;28;20061;-68
2022/05/11 10:31:34;;;;;;;6.85;5.85;;;26.80;65.30;;;;;;5009860;28;20375;-68
2022/05/11 10:34:04;;;;;;;7.30;5.20;;;26.80;64.60;;;;;;5011361;28;20029;-68
2022/05/11 10:37:00;;;;;;;5.75;5.07;;;26.90;64.50;;;;;;5009576;28;20380;-68
2022/05/11 10:39:55;;;;;;;6.95;4.88;;;27.00;64.40;;;;;;5002409;28;20042;-68
2022/05/11 10:42:35;;;;;;;5.75;4.57;;;27.00;63.60;;;;;;5008418;28;20431;-68
2022/05/11 10:45:23;;;;;;;6.55;4.72;;;27.10;63.00;;;;;;5011925;28;20026;-69
2022/05/11 10:47:57;;;;;;;6.43;4.78;;;27.10;62.70;;;;;;4992299;28;20484;-68
2022/05/11 10:50:33;;;;;;;8.20;4.82;;;27.10;62.30;;;;;;5001753;28;20038;-68
2022/05/11 10:53:33;;;;;;;12.65;5.45;;;27.20;62.40;;;;;;4995703;28;20522;-68
2022/05/11 10:56:09;;;;;;;8.48;4.70;;;27.30;62.20;;;;;;4991659;28;20680;-68
2022/05/11 10:59:10;;;;;;;4.72;4.20;;;27.30;61.60;;;;;;4992151;28;20492;-68
2022/05/11 11:02:09;;;;;;;6.28;4.57;;;27.40;61.30;;;;;;5001431;28;20034;-68
2022/05/11 11:05:03;;;;;;;7.35;4.22;;;27.40;61.20;;;;;;5009610;28;20528;-68
2022/05/11 11:08:07;;;;;;;4.82;4.30;;;27.60;61.30;;;;;;5009818;28;20041;-68
2022/05/11 11:10:40;;;;;;;7.10;4.07;;;27.70;60.90;;;;;;4991243;28;21912;-68
2022/05/11 11:13:38;;;;;;;5.60;4.53;;;27.80;60.40;;;;;;4991708;28;20124;-68
2022/05/11 11:16:05;;;;;;;8.65;4.95;;;27.80;60.30;;;;;;4991067;28;20767;-68
2022/05/11 11:18:34;;;;;;;4.72;4.32;;;27.90;59.50;;;;;;4991930;28;20054;-68
2022/05/11 11:21:02;;;;;;;6.25;4.35;;;27.90;59.90;;;;;;4997274;28;20079;-68
2022/05/11 11:23:33;;;;;;;4.53;3.90;;;27.90;59.10;;;;;;5010161;28;20481;-68
2022/05/11 11:26:10;;;;;;;5.72;4.10;;;28.00;59.10;;;;;;5009301;28;20034;-68
2022/05/11 11:28:41;;;;;;;4.60;3.88;;;28.00;58.20;;;;;;5010531;28;20500;-68
2022/05/11 11:31:10;;;;;;;6.18;3.90;;;28.00;57.70;;;;;;5001417;28;20180;-67
2022/05/11 11:33:39;;;;;;;5.72;4.00;;;28.00;57.70;;;;;;4991937;28;20085;-68
2022/05/11 11:36:18;;;;;;;4.72;3.80;;;28.10;57.20;;;;;;4992333;28;20432;-68
2022/05/11 11:38:43;;;;;;;5.30;3.47;;;28.10;57.20;;;;;;5015636;28;20064;-69
2022/05/11 11:41:09;;;;;;;6.90;4.22;;;28.20;56.90;;;;;;5003374;28;20113;-69
2022/05/11 11:44:03;;;;;;;6.38;3.70;;;28.30;57.00;;;;;;5019170;28;20160;-70
2022/05/11 11:46:35;;;;;;;6.35;3.60;;;28.40;57.20;;;;;;4999194;28;20026;-70
2022/05/11 11:49:09;;;;;;;5.85;3.80;;;28.50;56.80;;;;;;5014084;28;20033;-70
2022/05/11 11:51:58;;;;;;;7.55;4.60;;;28.50;56.60;;;;;;5008768;28;20038;-70
2022/05/11 11:54:36;;;;;;;6.45;3.95;;;28.50;56.60;;;;;;5024027;28;20025;-69
2022/05/11 11:57:20;;;;;;;4.07;3.67;;;28.60;56.40;;;;;;5003873;28;20084;-70
2022/05/11 11:59:53;;;;;;;;;;;28.60;56.10;;;;;;5003860;28;20513;-70
2022/05/11 12:02:36;;;;;;;4.35;3.13;;;28.70;56.90;;;;;;5017425;28;19909;-70
2022/05/11 12:05:04;;;;;;;4.40;3.38;;;28.70;55.80;;;;;;5022630;28;20038;-69
2022/05/11 12:16:21;;;;;;;5.90;2.90;;;28.70;52.00;;;;;;5005825;28;20031;-70
2022/05/11 12:18:47;;;;;;;4.47;3.30;;;28.80;51.60;;;;;;5035917;28;20022;-70
2022/05/11 12:21:29;;;;;;;3.97;3.10;;;28.80;50.80;;;;;;5021055;28;20060;-70
2022/05/11 12:23:55;;;;;;;4.82;2.80;;;28.80;50.40;;;;;;5027970;28;20026;-70
2022/05/11 12:26:31;;;;;;;8.50;3.45;;;28.70;50.00;;;;;;4993422;28;20026;-71
2022/05/11 12:31:59;;;;;;;5.63;3.33;;;28.80;49.80;;;;;;5006145;28;20042;-71
2022/05/11 12:34:28;;;;;;;5.30;3.42;;;28.80;50.00;;;;;;5024639;28;20536;-71
2022/05/11 12:36:54;;;;;;;6.00;3.20;;;28.80;50.60;;;;;;5013887;28;20099;-68
2022/05/11 12:39:35;;;;;;;5.88;3.00;;;28.80;49.90;;;;;;5026720;28;20031;-69
2022/05/11 12:42:02;;;;;;;5.57;3.13;;;28.80;50.20;;;;;;5008614;28;20049;-71
2022/05/11 12:44:31;;;;;;;6.30;3.40;;;28.80;49.90;;;;;;5006159;28;20023;-69
2022/05/11 12:47:01;;;;;;;6.63;3.22;;;28.90;50.00;;;;;;5008105;28;20021;-70
2022/05/11 12:49:28;;;;;;;4.43;3.15;;;28.90;50.20;;;;;;5026322;28;20419;-69
2022/05/11 12:51:57;;;;;;;5.65;3.25;;;29.00;50.20;;;;;;5015496;28;20029;-70
2022/05/11 12:54:28;;;;;;;6.50;3.35;;;29.00;50.00;;;;;;5000197;28;20432;-70
2022/05/11 12:57:00;;;;;;;8.93;3.53;;;29.00;49.50;;;;;;5002434;28;20029;-70
2022/05/11 12:59:28;;;;;;;7.18;3.72;;;29.10;49.90;;;;;;5007845;28;20040;-71
2022/05/11 13:02:23;;;;;;;10.30;3.28;;;29.10;50.00;;;;;;5005920;28;20036;-70
2022/05/11 13:04:53;;;;;;;7.20;3.85;;;29.10;49.80;;;;;;5010992;28;20038;-70
2022/05/11 13:07:50;;;;;;;9.38;3.40;;;29.20;49.70;;;;;;5010367;28;20124;-70
2022/05/11 13:10:31;;;;;;;4.25;3.00;;;29.30;49.50;;;;;;5009317;28;20136;-71
2022/05/11 13:12:58;;;;;;;5.75;3.33;;;29.30;49.20;;;;;;5008103;28;20030;-69
2022/05/11 13:16:01;;;;;;;6.03;3.30;;;29.40;49.10;;;;;;5005867;28;20025;-69
2022/05/11 13:18:29;;;;;;;6.25;3.20;;;29.50;48.90;;;;;;4992895;28;20106;-70
2022/05/11 13:20:58;;;;;;;3.67;2.90;;;29.60;48.40;;;;;;5009774;28;20037;-71
2022/05/11 13:23:28;;;;;;;5.93;3.30;;;29.50;48.80;;;;;;5011481;28;20033;-70
2022/05/11 13:25:56;;;;;;;5.35;3.10;;;29.40;48.30;;;;;;5008733;28;20108;-71
2022/05/11 13:28:33;;;;;;;5.03;3.10;;;29.40;48.50;;;;;;4993633;28;20585;-70
2022/05/11 13:31:21;;;;;;;4.40;3.20;;;29.40;48.70;;;;;;5003036;28;20042;-70
2022/05/11 13:33:46;;;;;;;4.28;3.50;;;29.40;49.00;;;;;;4994191;28;20035;-70
2022/05/11 13:36:16;;;;;;;4.63;3.03;;;29.50;48.90;;;;;;5003582;28;20072;-71
2022/05/11 13:39:23;;;;;;;4.45;2.95;;;29.60;49.60;;;;;;5011737;28;20029;-70
2022/05/11 13:41:53;;;;;;;8.77;3.58;;;29.60;49.30;;;;;;5011491;28;20077;-70
2022/05/11 13:44:38;;;;;;;5.10;3.10;;;29.60;48.70;;;;;;5010746;28;20030;-70
2022/05/11 13:50:35;;;;;;;5.97;2.83;;;29.80;48.90;;;;;;5002908;28;20121;-70